Aérodrome :
LOGIN :

S'inscrire | Disclaimer

   EN    FR    IT 

 










Légende :    VFR   VFR Marginal   IFR   IFR Intensif   IFR Très Intensif
Visi : 
Plafond : 
>= 8 km
>= 3000ft
5 à 8 km
1000 à 3000 ft
1500m à 5 km
500 à 1000 ft
800 à 1500m
200 à 500 ft
< 800m
< 200 ft
Symboles :   Orages  Brouillard  Fortes neiges  Fortes précipitations  Vent > 20 kt
SIGMETs :   Divers  Orages  Givrage  Turbulence  Onde Orograph.  Cendres Volcan.







- Altitude de l'aérodrome : 404 ft
- Code IATA : WRO


EPWR - Wroclaw

DERNIER METAR :
  • 130730Z 30003KT 1700 -SN BR BKN004 M01/M01 Q1023 R11/59//94

METARs EXPIRÉS :
  • 130700Z 30003KT 1300 R29/2000N -SN BR BKN003 M01/M01 Q1023 R11/59//94
  • 130630Z 32003KT 1600 -SN BR OVC003 M01/M01 Q1023
  • 130600Z 33003KT 300V030 2000 -SN BR OVC003 M01/M01 Q1023
  • 130530Z 30003KT 2500 -SN BR OVC003 M01/M01 Q1023
  • 130500Z 30004KT 2000 -SN BR FEW003 SCT008 BKN015 M01/M01 Q1023

TAF TAF EPWR
Valide du 13 à 06h jusqu'au 14 à 06h UTC


130530Z 1306/1406 33004KT 3000 BR BKN016
TEMPO 1306/1311 1000 -SN BR BKN004 BKN011
BECMG 1310/1312 5000 BR
Pas de NOTAMs connus pour ce terrain.



MET'MAP, la Météo Aéronautique d'un coup d'oeil ! - Copyright ORBIFLY Décembre 2007 - Disclaimer

ORBIFLY MET'MAP TEAM :

Programmation & Développement : Alexandra Zaïnal
Conception & Développement : Baudouin d'Aumeries
Co-Programmation & Développement : Marc-Olivier Méhu
Soutien technique & logistique : Manuel Goepfert

Contact : metmap@orbifly.com




SOURCES & CREDITS :

   NOAA